createdAt,value
2019-01-31T00:00:33.051Z,19.43
2019-01-31T00:03:35.026Z,16.30
2019-01-31T00:06:13.405Z,16.97
2019-01-31T00:09:28.578Z,18.43
2019-01-31T00:12:33.138Z,16.47
2019-01-31T00:15:10.564Z,17.80
2019-01-31T00:18:00.796Z,17.87
2019-01-31T00:21:01.676Z,19.83
2019-01-31T00:24:07.176Z,20.60
2019-01-31T00:27:08.571Z,20.33
2019-01-31T00:29:49.264Z,19.10
2019-01-31T00:33:05.645Z,19.93
2019-01-31T00:36:02.533Z,20.97
2019-01-31T00:38:56.785Z,18.70
2019-01-31T00:41:34.615Z,17.30
2019-01-31T00:44:36.850Z,19.60
2019-01-31T00:47:18.666Z,18.27
2019-01-31T00:50:25.339Z,20.57
2019-01-31T00:53:25.469Z,19.53
2019-01-31T00:56:17.747Z,20.97
2019-01-31T00:59:30.743Z,17.33
2019-01-31T01:02:21.058Z,18.20
2019-01-31T01:05:27.089Z,17.80
2019-01-31T01:08:21.542Z,19.43
2019-01-31T01:11:21.864Z,19.07
2019-01-31T01:14:25.696Z,20.37
2019-01-31T01:17:10.945Z,16.03
2019-01-31T01:20:08.837Z,16.97
2019-01-31T01:23:22.448Z,17.10
2019-01-31T01:26:17.818Z,16.87
2019-01-31T01:29:33.067Z,17.53
2019-01-31T01:32:40.434Z,19.43
2019-01-31T01:35:56.015Z,17.20
2019-01-31T01:39:19.261Z,19.57
2019-01-31T01:42:24.684Z,19.33
2019-01-31T01:45:37.903Z,18.50
2019-01-31T01:48:49.380Z,22.47
2019-01-31T01:52:00.324Z,23.30
2019-01-31T01:55:23.106Z,19.13
2019-01-31T01:58:30.597Z,20.60
2019-01-31T02:01:43.791Z,18.97
2019-01-31T02:04:24.696Z,20.83
2019-01-31T02:07:24.994Z,19.13
2019-01-31T02:10:31.878Z,18.87
2019-01-31T02:13:29.967Z,18.20
2019-01-31T02:16:51.865Z,15.37
2019-01-31T02:19:58.978Z,15.43
2019-01-31T02:23:18.434Z,17.47
2019-01-31T02:26:36.733Z,17.13
2019-01-31T02:29:46.163Z,15.87
2019-01-31T02:33:15.737Z,18.47
2019-01-31T02:36:27.993Z,16.37
2019-01-31T02:39:53.719Z,18.60
2019-01-31T02:42:51.813Z,16.60
2019-01-31T02:46:17.404Z,16.53
2019-01-31T02:49:15.114Z,16.90
2019-01-31T02:52:07.491Z,18.77
2019-01-31T02:54:41.831Z,17.93
2019-01-31T02:58:01.181Z,16.67
2019-01-31T03:01:01.699Z,15.10
2019-01-31T03:04:06.718Z,16.10
2019-01-31T03:07:17.282Z,16.53
2019-01-31T03:10:23.180Z,15.90
2019-01-31T03:13:29.991Z,17.73
2019-01-31T03:16:09.556Z,19.70
2019-01-31T03:19:37.939Z,14.83
2019-01-31T03:22:51.021Z,15.00
2019-01-31T03:25:41.801Z,15.23
2019-01-31T03:29:04.174Z,18.13
2019-01-31T03:32:10.425Z,16.43
2019-01-31T03:34:56.595Z,18.70
2019-01-31T03:38:01.592Z,17.87
2019-01-31T03:40:59.068Z,15.17
2019-01-31T03:43:59.490Z,14.37
2019-01-31T03:47:22.480Z,18.00
2019-01-31T03:50:23.456Z,16.23
2019-01-31T03:53:29.079Z,15.80
2019-01-31T03:56:48.560Z,15.20
2019-01-31T03:59:47.659Z,17.90
2019-01-31T04:02:49.703Z,16.50
2019-01-31T04:06:00.248Z,16.60
2019-01-31T04:08:30.593Z,15.80
2019-01-31T04:11:00.016Z,15.00
2019-01-31T04:13:30.637Z,17.13
2019-01-31T04:16:07.705Z,16.80
2019-01-31T04:18:37.768Z,19.73
2019-01-31T04:21:07.055Z,19.00
2019-01-31T04:23:36.293Z,18.00
2019-01-31T04:26:08.693Z,18.20
2019-01-31T04:28:38.019Z,16.83
2019-01-31T04:31:08.320Z,17.00
2019-01-31T04:33:38.620Z,17.17
2019-01-31T04:36:07.905Z,18.10
2019-01-31T04:38:37.315Z,19.63
2019-01-31T04:41:07.083Z,17.67
2019-01-31T04:43:36.349Z,20.13
2019-01-31T04:46:05.938Z,16.13
2019-01-31T04:48:35.215Z,17.37
2019-01-31T04:51:04.514Z,17.43
2019-01-31T04:53:36.061Z,22.40
2019-01-31T04:56:05.653Z,19.43
2019-01-31T04:58:36.793Z,21.90
2019-01-31T05:01:06.296Z,21.77
2019-01-31T05:03:35.627Z,21.50
2019-01-31T05:06:06.866Z,21.43
2019-01-31T05:08:36.129Z,19.10
2019-01-31T05:11:09.682Z,20.37
2019-01-31T05:13:39.050Z,21.07
2019-01-31T05:16:08.559Z,19.33
2019-01-31T05:18:37.815Z,19.40
2019-01-31T05:21:08.088Z,21.33
2019-01-31T05:23:37.339Z,22.63
2019-01-31T05:26:06.586Z,21.30
2019-01-31T05:28:36.308Z,20.00
2019-01-31T05:31:05.662Z,23.43
2019-01-31T05:33:34.924Z,23.30
2019-01-31T05:36:04.227Z,23.53
2019-01-31T05:38:33.835Z,24.07
2019-01-31T05:41:03.336Z,24.23
2019-01-31T05:43:33.986Z,22.33
2019-01-31T05:46:03.216Z,25.87
2019-01-31T05:48:32.483Z,24.03
2019-01-31T05:51:03.922Z,23.47
2019-01-31T05:53:33.504Z,24.50
2019-01-31T05:56:02.743Z,23.63
2019-01-31T05:58:31.985Z,23.90
2019-01-31T06:01:01.300Z,24.43
2019-01-31T06:03:31.858Z,21.33
2019-01-31T06:06:03.432Z,22.80
2019-01-31T06:08:32.679Z,24.03
2019-01-31T06:11:07.495Z,24.57
2019-01-31T06:13:33.827Z,22.13
2019-01-31T06:16:03.063Z,19.67
2019-01-31T06:18:32.348Z,19.97
2019-01-31T06:21:02.893Z,19.07
2019-01-31T06:23:32.478Z,18.23
2019-01-31T06:26:03.079Z,18.07
2019-01-31T06:28:32.635Z,17.17
2019-01-31T06:31:01.869Z,17.63
2019-01-31T06:33:33.967Z,17.57
2019-01-31T06:36:03.195Z,18.37
2019-01-31T06:38:32.518Z,19.33
2019-01-31T06:41:03.434Z,19.47
2019-01-31T06:43:32.703Z,21.47
2019-01-31T06:46:02.233Z,21.80
2019-01-31T06:48:34.073Z,21.30
2019-01-31T06:51:03.541Z,23.07
2019-01-31T06:53:33.106Z,44.90
2019-01-31T06:56:02.357Z,42.13
2019-01-31T06:58:31.621Z,38.20
2019-01-31T07:01:00.855Z,32.73
2019-01-31T07:03:30.125Z,37.50
2019-01-31T07:05:59.370Z,37.70
2019-01-31T07:08:29.695Z,35.23
2019-01-31T07:10:58.946Z,31.47
2019-01-31T07:13:30.470Z,27.73
2019-01-31T07:16:00.064Z,22.93
2019-01-31T07:18:29.327Z,19.83
2019-01-31T07:20:58.587Z,20.17
2019-01-31T07:23:27.808Z,15.83
2019-01-31T07:25:57.049Z,18.43
2019-01-31T07:28:26.264Z,18.87
2019-01-31T07:30:55.517Z,19.97
2019-01-31T07:33:25.281Z,16.83
2019-01-31T07:35:54.806Z,18.53
2019-01-31T07:38:27.375Z,18.43
2019-01-31T07:40:57.327Z,16.03
2019-01-31T07:43:26.882Z,16.33
2019-01-31T07:45:56.142Z,16.90
2019-01-31T07:48:25.363Z,15.90
2019-01-31T07:50:54.622Z,17.10
2019-01-31T07:53:24.234Z,16.13
2019-01-31T07:55:53.545Z,14.27
2019-01-31T07:58:22.774Z,16.30
2019-01-31T08:00:52.030Z,21.23
2019-01-31T08:03:21.254Z,17.07
2019-01-31T08:05:50.501Z,15.67
2019-01-31T08:08:19.762Z,22.40
2019-01-31T08:10:50.235Z,20.60
2019-01-31T08:13:19.951Z,17.07
2019-01-31T08:15:49.202Z,17.00
2019-01-31T08:18:18.470Z,13.70
2019-01-31T08:20:48.026Z,14.90
2019-01-31T08:23:17.353Z,15.10
2019-01-31T08:25:46.807Z,17.03
2019-01-31T08:28:17.278Z,14.80
2019-01-31T08:30:46.527Z,13.33
2019-01-31T08:33:15.739Z,12.60
2019-01-31T08:35:44.982Z,12.63
2019-01-31T08:38:14.223Z,12.20
2019-01-31T08:40:43.499Z,12.63
2019-01-31T08:43:12.875Z,12.53
2019-01-31T08:45:42.239Z,12.03
2019-01-31T08:48:11.812Z,13.00
2019-01-31T08:50:41.510Z,13.70
2019-01-31T08:53:10.743Z,14.93
2019-01-31T08:55:40.792Z,12.20
2019-01-31T08:58:10.089Z,11.90
2019-01-31T09:00:39.308Z,12.40
2019-01-31T09:03:08.575Z,13.23
2019-01-31T09:05:37.798Z,13.43
2019-01-31T09:08:07.058Z,13.23
2019-01-31T09:10:38.564Z,13.77
2019-01-31T09:13:10.052Z,13.70
2019-01-31T09:15:39.312Z,14.60
2019-01-31T09:18:08.889Z,13.73
2019-01-31T09:21:05.398Z,14.30
2019-01-31T09:24:16.380Z,14.67
2019-01-31T09:27:39.024Z,14.60
2019-01-31T09:30:51.235Z,13.27
2019-01-31T09:34:07.558Z,13.40
2019-01-31T09:37:14.168Z,13.13
2019-01-31T09:40:23.147Z,12.63
2019-01-31T09:43:09.002Z,14.13
2019-01-31T09:46:22.708Z,13.13
2019-01-31T09:49:00.934Z,14.37
2019-01-31T09:52:30.214Z,12.50
2019-01-31T09:55:24.837Z,12.57
2019-01-31T09:58:20.773Z,12.30
2019-01-31T10:01:36.935Z,12.27
2019-01-31T10:04:27.183Z,12.67
2019-01-31T10:07:29.461Z,13.67
2019-01-31T10:10:41.549Z,15.43
2019-01-31T10:13:58.557Z,14.63
2019-01-31T10:17:10.659Z,13.93
2019-01-31T10:20:24.960Z,13.10
2019-01-31T10:23:25.037Z,14.03
2019-01-31T10:26:31.465Z,14.80
2019-01-31T10:29:25.906Z,16.00
2019-01-31T10:32:24.857Z,15.47
2019-01-31T10:35:18.480Z,14.93
2019-01-31T10:38:17.067Z,16.17
2019-01-31T10:41:21.605Z,15.60
2019-01-31T10:44:35.466Z,16.07
2019-01-31T10:47:26.814Z,14.90
2019-01-31T10:50:42.029Z,14.73
2019-01-31T10:53:54.744Z,15.60
2019-01-31T10:57:16.225Z,15.00
2019-01-31T11:00:40.466Z,14.30
2019-01-31T11:03:46.657Z,16.77
2019-01-31T11:07:08.398Z,13.20
2019-01-31T11:09:55.881Z,13.10
2019-01-31T11:13:00.315Z,12.33
2019-01-31T11:16:07.056Z,14.07
2019-01-31T11:19:12.387Z,15.10
2019-01-31T11:22:21.169Z,13.30
2019-01-31T11:25:18.165Z,13.43
2019-01-31T11:28:37.407Z,14.43
2019-01-31T11:31:44.804Z,14.07
2019-01-31T11:34:40.421Z,16.23
2019-01-31T11:37:51.942Z,17.10
2019-01-31T11:41:07.547Z,16.10
2019-01-31T11:44:11.820Z,13.77
2019-01-31T11:47:10.863Z,16.53
2019-01-31T11:50:18.441Z,17.83
2019-01-31T11:53:35.082Z,13.87
2019-01-31T11:56:41.834Z,14.30
2019-01-31T11:59:12.463Z,14.47
2019-01-31T12:01:42.024Z,13.50
2019-01-31T12:04:29.512Z,13.63
2019-01-31T12:06:58.782Z,11.87
2019-01-31T12:09:28.010Z,12.43
2019-01-31T12:11:57.256Z,12.90
2019-01-31T12:14:27.728Z,12.43
2019-01-31T12:16:57.823Z,12.50
2019-01-31T12:19:27.080Z,11.90
2019-01-31T12:21:56.335Z,10.53
2019-01-31T12:24:25.554Z,10.83
2019-01-31T12:26:54.787Z,11.27
2019-01-31T12:29:24.006Z,9.80
2019-01-31T12:31:54.369Z,10.50
2019-01-31T12:34:23.634Z,10.63
2019-01-31T12:36:52.830Z,11.23
2019-01-31T12:39:22.032Z,11.03
2019-01-31T12:41:51.275Z,10.70
2019-01-31T12:44:20.497Z,10.17
2019-01-31T12:46:49.732Z,9.97
2019-01-31T12:49:18.973Z,10.67
2019-01-31T12:51:48.214Z,10.07
2019-01-31T12:54:18.391Z,9.80
2019-01-31T12:56:47.619Z,9.97
2019-01-31T12:59:16.911Z,9.13
2019-01-31T13:01:46.149Z,10.13
2019-01-31T13:04:15.393Z,9.33
2019-01-31T13:06:44.709Z,9.57
2019-01-31T13:09:14.149Z,7.83
2019-01-31T13:11:43.513Z,8.93
2019-01-31T13:14:12.749Z,8.20
2019-01-31T13:16:41.997Z,9.17
2019-01-31T13:19:11.739Z,8.77
2019-01-31T13:21:40.948Z,7.33
2019-01-31T13:24:10.174Z,9.87
2019-01-31T13:26:39.393Z,12.20
2019-01-31T13:29:08.700Z,9.50
2019-01-31T13:31:37.938Z,11.37
2019-01-31T13:34:08.360Z,10.17
2019-01-31T13:36:37.585Z,11.10
2019-01-31T13:39:14.222Z,12.10
2019-01-31T13:41:43.462Z,11.27
2019-01-31T13:44:12.904Z,10.30
2019-01-31T13:46:42.213Z,10.83
2019-01-31T13:49:11.474Z,11.13
2019-01-31T13:51:40.954Z,11.37
2019-01-31T13:54:13.320Z,10.23
2019-01-31T13:56:45.752Z,10.07
2019-01-31T13:59:13.504Z,9.80
2019-01-31T14:01:42.709Z,10.43
2019-01-31T14:04:12.293Z,9.70
2019-01-31T14:06:41.511Z,11.23
2019-01-31T14:09:11.301Z,11.10
2019-01-31T14:11:40.535Z,12.53
2019-01-31T14:14:09.839Z,10.10
2019-01-31T14:16:47.240Z,10.20
2019-01-31T14:19:10.053Z,11.87
2019-01-31T14:21:39.478Z,10.70
2019-01-31T14:24:08.707Z,10.17
2019-01-31T14:26:41.310Z,10.57
2019-01-31T14:29:10.553Z,11.00
2019-01-31T14:31:40.143Z,10.33
2019-01-31T14:34:10.025Z,10.60
2019-01-31T14:36:39.272Z,11.10
2019-01-31T14:39:10.150Z,10.17
2019-01-31T14:41:39.450Z,12.10
2019-01-31T14:44:19.895Z,11.60
2019-01-31T14:46:39.641Z,11.77
2019-01-31T14:49:09.159Z,10.50
2019-01-31T14:51:38.425Z,11.57
2019-01-31T14:54:07.684Z,13.33
2019-01-31T14:56:36.932Z,11.20
2019-01-31T14:59:06.509Z,11.17
2019-01-31T15:01:35.748Z,12.30
2019-01-31T15:04:04.990Z,11.53
2019-01-31T15:06:34.223Z,12.87
2019-01-31T15:09:04.427Z,13.77
2019-01-31T15:11:33.679Z,13.47
2019-01-31T15:14:02.912Z,12.83
2019-01-31T15:16:32.920Z,15.83
2019-01-31T15:19:02.147Z,14.63
2019-01-31T15:21:31.407Z,14.17
2019-01-31T15:24:00.624Z,16.57
2019-01-31T15:26:29.870Z,15.57
2019-01-31T15:29:00.681Z,17.73
2019-01-31T15:31:29.940Z,17.50
2019-01-31T15:33:59.161Z,16.33
2019-01-31T15:36:28.398Z,22.70
2019-01-31T15:38:57.630Z,13.47
2019-01-31T15:41:26.864Z,13.77
2019-01-31T15:43:56.117Z,15.43
2019-01-31T15:46:25.337Z,15.33
2019-01-31T15:48:55.318Z,14.87
2019-01-31T15:51:25.012Z,17.40
2019-01-31T15:53:54.561Z,17.23
2019-01-31T15:56:23.793Z,16.07
2019-01-31T15:58:53.028Z,17.20
2019-01-31T16:01:22.249Z,19.13
2019-01-31T16:03:51.502Z,20.80
2019-01-31T16:06:20.829Z,19.03
2019-01-31T16:08:50.081Z,18.07
2019-01-31T16:11:19.659Z,16.57
2019-01-31T16:13:48.964Z,16.87
2019-01-31T16:16:20.160Z,19.07
2019-01-31T16:18:49.701Z,16.67
2019-01-31T16:21:18.935Z,15.10
2019-01-31T16:23:48.504Z,15.53
2019-01-31T16:26:17.827Z,18.17
2019-01-31T16:28:49.362Z,18.03
2019-01-31T16:31:18.882Z,19.53
2019-01-31T16:33:48.114Z,18.20
2019-01-31T16:36:17.767Z,24.47
2019-01-31T16:38:47.314Z,31.87
2019-01-31T16:41:17.354Z,22.73
2019-01-31T16:43:48.175Z,22.53
2019-01-31T16:46:17.426Z,23.53
2019-01-31T16:48:48.123Z,52.93
2019-01-31T16:51:17.385Z,27.77
2019-01-31T16:53:47.311Z,24.80
2019-01-31T16:56:16.569Z,22.63
2019-01-31T16:58:45.809Z,20.47
2019-01-31T17:01:16.037Z,22.53
2019-01-31T17:03:45.472Z,24.27
2019-01-31T17:06:15.572Z,22.30
2019-01-31T17:08:44.805Z,20.47
2019-01-31T17:11:14.034Z,19.77
2019-01-31T17:13:44.355Z,20.87
2019-01-31T17:16:13.608Z,21.33
2019-01-31T17:18:42.881Z,25.30
2019-01-31T17:21:12.147Z,24.23
2019-01-31T17:23:41.377Z,23.17
2019-01-31T17:26:10.623Z,22.17
2019-01-31T17:28:39.862Z,22.93
2019-01-31T17:31:10.370Z,25.50
2019-01-31T17:33:39.588Z,25.27
2019-01-31T17:36:08.836Z,26.77
2019-01-31T17:38:38.059Z,25.07
2019-01-31T17:41:07.315Z,22.43
2019-01-31T17:43:36.627Z,25.40
2019-01-31T17:46:07.460Z,21.90
2019-01-31T17:48:36.703Z,24.10
2019-01-31T17:51:05.931Z,23.60
2019-01-31T17:53:35.322Z,22.07
2019-01-31T17:56:04.921Z,25.40
2019-01-31T17:58:34.379Z,63.43
2019-01-31T18:01:03.792Z,41.27
2019-01-31T18:03:33.036Z,32.40
2019-01-31T18:06:02.294Z,34.70
2019-01-31T18:08:31.536Z,28.53
2019-01-31T18:11:02.304Z,24.87
2019-01-31T18:13:31.795Z,23.57
2019-01-31T18:16:01.044Z,20.67
2019-01-31T18:18:30.318Z,24.17
2019-01-31T18:20:59.875Z,35.37
2019-01-31T18:23:31.877Z,36.23
2019-01-31T18:26:01.117Z,34.57
2019-01-31T18:28:30.368Z,30.67
2019-01-31T18:30:59.607Z,26.13
2019-01-31T18:33:28.982Z,25.23
2019-01-31T18:35:58.309Z,26.77
2019-01-31T18:38:27.569Z,25.57
2019-01-31T18:40:56.776Z,42.80
2019-01-31T18:43:28.836Z,61.67
2019-01-31T18:45:58.081Z,67.57
2019-01-31T18:48:29.773Z,37.07
2019-01-31T18:50:59.569Z,33.73
2019-01-31T18:53:30.147Z,32.37
2019-01-31T18:55:59.369Z,30.00
2019-01-31T18:58:28.636Z,33.40
2019-01-31T19:00:57.863Z,39.97
2019-01-31T19:03:29.151Z,37.40
2019-01-31T19:05:58.382Z,39.40
2019-01-31T19:08:27.628Z,35.10
2019-01-31T19:10:56.865Z,41.00
2019-01-31T19:13:26.270Z,69.23
2019-01-31T19:16:04.657Z,204.27
2019-01-31T19:18:26.594Z,237.70
2019-01-31T19:20:57.022Z,163.13
2019-01-31T19:23:29.333Z,152.43
2019-01-31T19:25:58.583Z,121.10
2019-01-31T19:28:28.135Z,55.53
2019-01-31T19:30:57.353Z,35.67
2019-01-31T19:33:26.656Z,30.47
2019-01-31T19:35:55.845Z,31.63
2019-01-31T19:38:26.294Z,31.30
2019-01-31T19:40:55.514Z,33.20
2019-01-31T19:43:24.769Z,32.83
2019-01-31T19:45:53.991Z,29.53
2019-01-31T19:48:23.160Z,28.53
2019-01-31T19:50:52.385Z,30.13
2019-01-31T19:53:21.658Z,30.43
2019-01-31T19:55:51.195Z,29.60
2019-01-31T19:58:20.434Z,28.67
2019-01-31T20:00:49.693Z,27.67
2019-01-31T20:03:20.142Z,26.70
2019-01-31T20:05:49.638Z,30.77
2019-01-31T20:08:18.919Z,25.53
2019-01-31T20:10:48.142Z,28.50
2019-01-31T20:13:17.203Z,26.27
2019-01-31T20:15:46.447Z,25.73
2019-01-31T20:18:15.844Z,23.03
2019-01-31T20:20:44.893Z,22.17
2019-01-31T20:23:14.123Z,24.20
2019-01-31T20:25:43.638Z,20.90
2019-01-31T20:28:12.876Z,20.93
2019-01-31T20:30:42.117Z,23.03
2019-01-31T20:33:11.357Z,19.93
2019-01-31T20:35:41.455Z,19.57
2019-01-31T20:38:10.679Z,19.83
2019-01-31T20:40:42.094Z,18.63
2019-01-31T20:43:11.316Z,22.33
2019-01-31T20:45:40.393Z,22.30
2019-01-31T20:48:11.185Z,18.23
2019-01-31T20:50:42.199Z,18.60
2019-01-31T20:53:12.789Z,19.97
2019-01-31T20:55:42.298Z,21.17
2019-01-31T20:58:11.531Z,19.50
2019-01-31T21:00:43.141Z,19.40
2019-01-31T21:03:13.612Z,18.27
2019-01-31T21:05:43.248Z,20.00
2019-01-31T21:08:13.927Z,19.97
2019-01-31T21:10:44.600Z,21.43
2019-01-31T21:13:13.847Z,25.80
2019-01-31T21:15:44.417Z,27.10
2019-01-31T21:18:13.738Z,25.83
2019-01-31T21:20:47.153Z,26.40
2019-01-31T21:23:16.360Z,28.10
2019-01-31T21:25:45.731Z,27.80
2019-01-31T21:28:23.947Z,28.47
2019-01-31T21:30:55.230Z,33.60
2019-01-31T21:33:26.246Z,30.53
2019-01-31T21:35:59.513Z,29.57
2019-01-31T21:38:39.138Z,31.30
2019-01-31T21:41:14.239Z,33.83
2019-01-31T21:43:43.403Z,31.63
2019-01-31T21:46:12.716Z,24.77
2019-01-31T21:48:42.849Z,27.03
2019-01-31T21:51:12.150Z,25.00
2019-01-31T21:53:41.369Z,30.17
2019-01-31T21:56:10.648Z,22.47
2019-01-31T21:58:39.890Z,21.60
2019-01-31T22:01:12.584Z,19.17
2019-01-31T22:03:42.972Z,19.73
2019-01-31T22:06:22.252Z,20.00
2019-01-31T22:08:45.505Z,21.37
2019-01-31T22:11:14.858Z,23.57
2019-01-31T22:13:44.416Z,21.17
2019-01-31T22:16:13.685Z,21.70
2019-01-31T22:18:43.831Z,21.60
2019-01-31T22:21:13.121Z,21.40
2019-01-31T22:23:42.365Z,20.90
2019-01-31T22:26:12.305Z,23.80
2019-01-31T22:28:42.955Z,21.50
2019-01-31T22:31:12.218Z,21.87
2019-01-31T22:33:44.129Z,18.93
2019-01-31T22:36:13.653Z,20.83
2019-01-31T22:38:45.567Z,21.67
2019-01-31T22:41:13.958Z,21.80
2019-01-31T22:43:43.188Z,23.63
2019-01-31T22:46:12.478Z,22.10
2019-01-31T22:48:43.999Z,28.13
2019-01-31T22:51:13.572Z,33.27
2019-01-31T22:53:42.885Z,22.73
2019-01-31T22:56:12.206Z,24.30
2019-01-31T22:58:41.471Z,31.30
2019-01-31T23:01:43.809Z,21.03
2019-01-31T23:04:13.082Z,27.47
2019-01-31T23:06:42.562Z,36.40
2019-01-31T23:09:13.238Z,19.50
2019-01-31T23:11:42.511Z,23.90
2019-01-31T23:14:12.908Z,21.67
2019-01-31T23:16:42.253Z,16.83
2019-01-31T23:19:11.615Z,18.80
2019-01-31T23:21:40.862Z,20.23
2019-01-31T23:24:10.136Z,18.60
2019-01-31T23:26:39.448Z,15.33
2019-01-31T23:29:08.801Z,15.47
2019-01-31T23:31:38.099Z,13.40
2019-01-31T23:34:08.511Z,13.93
2019-01-31T23:36:38.060Z,16.50
2019-01-31T23:39:10.674Z,15.00
2019-01-31T23:41:41.897Z,13.17
2019-01-31T23:44:11.486Z,12.73
2019-01-31T23:46:40.591Z,11.07
2019-01-31T23:49:09.876Z,11.00
2019-01-31T23:51:39.091Z,12.63
2019-01-31T23:54:08.405Z,11.30
2019-01-31T23:56:37.606Z,11.30
2019-01-31T23:59:06.878Z,11.73
